sensor_id;sensor_type;location;lat;lon;timestamp;temperature;humidity
49465;DHT22;35358;49.342;8.802;2022-09-12T00:03:36;13.70;99.90
49465;DHT22;35358;49.342;8.802;2022-09-12T00:06:08;13.70;99.90
49465;DHT22;35358;49.342;8.802;2022-09-12T00:08:36;13.80;99.90
49465;DHT22;35358;49.342;8.802;2022-09-12T00:11:09;13.70;99.90
49465;DHT22;35358;49.342;8.802;2022-09-12T00:13:36;13.60;99.90
49465;DHT22;35358;49.342;8.802;2022-09-12T00:16:02;13.60;99.90
49465;DHT22;35358;49.342;8.802;2022-09-12T00:18:31;13.60;99.90
49465;DHT22;35358;49.342;8.802;2022-09-12T00:20:57;13.60;99.90
49465;DHT22;35358;49.342;8.802;2022-09-12T00:23:31;13.70;99.90
49465;DHT22;35358;49.342;8.802;2022-09-12T00:25:57;13.60;99.90
49465;DHT22;35358;49.342;8.802;2022-09-12T00:28:25;13.50;99.90
49465;DHT22;35358;49.342;8.802;2022-09-12T00:30:51;13.40;99.90
49465;DHT22;35358;49.342;8.802;2022-09-12T00:33:19;13.40;99.90
49465;DHT22;35358;49.342;8.802;2022-09-12T00:35:49;13.40;99.90
49465;DHT22;35358;49.342;8.802;2022-09-12T00:38:20;13.40;99.90
49465;DHT22;35358;49.342;8.802;2022-09-12T00:40:47;13.40;99.90
49465;DHT22;35358;49.342;8.802;2022-09-12T00:43:13;13.40;99.90
49465;DHT22;35358;49.342;8.802;2022-09-12T00:45:39;13.40;99.90
49465;DHT22;35358;49.342;8.802;2022-09-12T00:48:17;13.30;99.90
49465;DHT22;35358;49.342;8.802;2022-09-12T00:50:45;13.30;99.90
49465;DHT22;35358;49.342;8.802;2022-09-12T00:53:13;13.20;99.90
49465;DHT22;35358;49.342;8.802;2022-09-12T00:55:41;13.20;99.90
49465;DHT22;35358;49.342;8.802;2022-09-12T00:58:22;13.40;99.90
49465;DHT22;35358;49.342;8.802;2022-09-12T01:00:49;13.40;99.90
49465;DHT22;35358;49.342;8.802;2022-09-12T01:03:19;13.20;99.90
49465;DHT22;35358;49.342;8.802;2022-09-12T01:08:23;13.20;99.90
49465;DHT22;35358;49.342;8.802;2022-09-12T01:10:50;13.10;99.90
49465;DHT22;35358;49.342;8.802;2022-09-12T01:13:16;13.10;99.90
49465;DHT22;35358;49.342;8.802;2022-09-12T01:15:44;13.10;99.90
49465;DHT22;35358;49.342;8.802;2022-09-12T01:21:38;13.20;99.90
49465;DHT22;35358;49.342;8.802;2022-09-12T01:24:30;13.20;99.90
49465;DHT22;35358;49.342;8.802;2022-09-12T01:27:23;13.10;99.90
49465;DHT22;35358;49.342;8.802;2022-09-12T01:35:35;13.00;99.90
49465;DHT22;35358;49.342;8.802;2022-09-12T01:40:55;12.90;99.90
49465;DHT22;35358;49.342;8.802;2022-09-12T01:46:14;12.90;99.90
49465;DHT22;35358;49.342;8.802;2022-09-12T01:48:59;13.00;99.90
49465;DHT22;35358;49.342;8.802;2022-09-12T01:51:41;13.00;99.90
49465;DHT22;35358;49.342;8.802;2022-09-12T01:54:13;12.80;99.90
49465;DHT22;35358;49.342;8.802;2022-09-12T01:56:44;12.80;99.90
49465;DHT22;35358;49.342;8.802;2022-09-12T01:59:38;12.80;99.90
49465;DHT22;35358;49.342;8.802;2022-09-12T02:02:15;12.70;99.90
49465;DHT22;35358;49.342;8.802;2022-09-12T02:04:54;12.80;99.90
49465;DHT22;35358;49.342;8.802;2022-09-12T02:07:44;12.70;99.90
49465;DHT22;35358;49.342;8.802;2022-09-12T02:10:22;12.70;99.90
49465;DHT22;35358;49.342;8.802;2022-09-12T02:12:52;12.70;99.90
49465;DHT22;35358;49.342;8.802;2022-09-12T02:15:23;12.80;99.90
49465;DHT22;35358;49.342;8.802;2022-09-12T02:17:49;12.80;99.90
49465;DHT22;35358;49.342;8.802;2022-09-12T02:20:23;12.70;99.90
49465;DHT22;35358;49.342;8.802;2022-09-12T02:22:52;12.70;99.90
49465;DHT22;35358;49.342;8.802;2022-09-12T02:25:19;12.80;99.90
49465;DHT22;35358;49.342;8.802;2022-09-12T02:27:52;12.80;99.90
49465;DHT22;35358;49.342;8.802;2022-09-12T02:30:19;12.70;99.90
49465;DHT22;35358;49.342;8.802;2022-09-12T02:32:53;12.50;99.90
49465;DHT22;35358;49.342;8.802;2022-09-12T02:35:45;12.50;99.90
49465;DHT22;35358;49.342;8.802;2022-09-12T02:38:23;12.50;99.90
49465;DHT22;35358;49.342;8.802;2022-09-12T02:40:53;12.30;99.90
49465;DHT22;35358;49.342;8.802;2022-09-12T02:43:18;12.20;99.90
49465;DHT22;35358;49.342;8.802;2022-09-12T02:45:44;12.20;99.90
49465;DHT22;35358;49.342;8.802;2022-09-12T02:50:39;12.40;99.90
49465;DHT22;35358;49.342;8.802;2022-09-12T02:53:08;12.40;99.90
49465;DHT22;35358;49.342;8.802;2022-09-12T02:55:39;12.50;99.90
49465;DHT22;35358;49.342;8.802;2022-09-12T02:58:10;12.50;99.90
49465;DHT22;35358;49.342;8.802;2022-09-12T03:06:59;12.40;99.90
49465;DHT22;35358;49.342;8.802;2022-09-12T03:17:53;12.30;99.90
49465;DHT22;35358;49.342;8.802;2022-09-12T03:23:54;12.40;99.90
49465;DHT22;35358;49.342;8.802;2022-09-12T03:26:16;12.20;99.90
49465;DHT22;35358;49.342;8.802;2022-09-12T03:28:46;12.20;99.90
49465;DHT22;35358;49.342;8.802;2022-09-12T03:31:17;12.20;99.90
49465;DHT22;35358;49.342;8.802;2022-09-12T03:33:45;12.30;99.90
49465;DHT22;35358;49.342;8.802;2022-09-12T03:36:19;12.30;99.90
49465;DHT22;35358;49.342;8.802;2022-09-12T03:38:49;12.40;99.90
49465;DHT22;35358;49.342;8.802;2022-09-12T03:41:17;12.40;99.90
49465;DHT22;35358;49.342;8.802;2022-09-12T03:43:46;12.40;99.90
49465;DHT22;35358;49.342;8.802;2022-09-12T03:46:12;12.40;99.90
49465;DHT22;35358;49.342;8.802;2022-09-12T03:48:38;12.40;99.90
49465;DHT22;35358;49.342;8.802;2022-09-12T03:51:06;12.40;99.90
49465;DHT22;35358;49.342;8.802;2022-09-12T03:53:33;12.40;99.90
49465;DHT22;35358;49.342;8.802;2022-09-12T03:56:11;12.40;99.90
49465;DHT22;35358;49.342;8.802;2022-09-12T03:58:37;12.40;99.90
49465;DHT22;35358;49.342;8.802;2022-09-12T04:01:28;12.30;99.90
49465;DHT22;35358;49.342;8.802;2022-09-12T04:03:57;12.30;99.90
49465;DHT22;35358;49.342;8.802;2022-09-12T04:06:23;12.20;99.90
49465;DHT22;35358;49.342;8.802;2022-09-12T04:08:53;12.20;99.90
49465;DHT22;35358;49.342;8.802;2022-09-12T04:11:20;12.20;99.90
49465;DHT22;35358;49.342;8.802;2022-09-12T04:13:47;12.20;99.90
49465;DHT22;35358;49.342;8.802;2022-09-12T04:16:15;12.20;99.90
49465;DHT22;35358;49.342;8.802;2022-09-12T04:18:42;12.30;99.90
49465;DHT22;35358;49.342;8.802;2022-09-12T04:21:15;12.30;99.90
49465;DHT22;35358;49.342;8.802;2022-09-12T04:23:44;12.30;99.90
49465;DHT22;35358;49.342;8.802;2022-09-12T04:26:10;12.30;99.90
49465;DHT22;35358;49.342;8.802;2022-09-12T04:28:38;12.20;99.90
49465;DHT22;35358;49.342;8.802;2022-09-12T04:31:08;12.20;99.90
49465;DHT22;35358;49.342;8.802;2022-09-12T04:33:35;12.00;99.90
49465;DHT22;35358;49.342;8.802;2022-09-12T04:36:09;12.00;99.90
49465;DHT22;35358;49.342;8.802;2022-09-12T04:38:35;12.00;99.90
49465;DHT22;35358;49.342;8.802;2022-09-12T04:41:15;12.00;99.90
49465;DHT22;35358;49.342;8.802;2022-09-12T04:43:44;12.00;99.90
49465;DHT22;35358;49.342;8.802;2022-09-12T04:46:16;12.00;99.90
49465;DHT22;35358;49.342;8.802;2022-09-12T04:48:44;12.00;99.90
49465;DHT22;35358;49.342;8.802;2022-09-12T04:51:12;11.80;99.90
49465;DHT22;35358;49.342;8.802;2022-09-12T04:53:39;11.80;99.90
49465;DHT22;35358;49.342;8.802;2022-09-12T04:56:06;11.80;99.90
49465;DHT22;35358;49.342;8.802;2022-09-12T04:58:35;11.70;99.90
49465;DHT22;35358;49.342;8.802;2022-09-12T05:01:14;11.80;99.90
49465;DHT22;35358;49.342;8.802;2022-09-12T05:03:41;11.90;99.90
49465;DHT22;35358;49.342;8.802;2022-09-12T05:06:10;11.90;99.90
49465;DHT22;35358;49.342;8.802;2022-09-12T05:08:38;11.90;99.90
49465;DHT22;35358;49.342;8.802;2022-09-12T05:11:12;11.80;99.90
49465;DHT22;35358;49.342;8.802;2022-09-12T05:13:39;11.80;99.90
49465;DHT22;35358;49.342;8.802;2022-09-12T05:16:06;11.70;99.90
49465;DHT22;35358;49.342;8.802;2022-09-12T05:18:33;11.70;99.90
49465;DHT22;35358;49.342;8.802;2022-09-12T05:21:03;11.70;99.90
49465;DHT22;35358;49.342;8.802;2022-09-12T05:23:29;11.60;99.90
49465;DHT22;35358;49.342;8.802;2022-09-12T05:25:57;11.60;99.90
49465;DHT22;35358;49.342;8.802;2022-09-12T05:28:28;11.60;99.90
49465;DHT22;35358;49.342;8.802;2022-09-12T05:31:23;11.60;99.90
49465;DHT22;35358;49.342;8.802;2022-09-12T05:33:50;11.70;99.90
49465;DHT22;35358;49.342;8.802;2022-09-12T05:36:24;11.70;99.90
49465;DHT22;35358;49.342;8.802;2022-09-12T05:38:51;11.70;99.90
49465;DHT22;35358;49.342;8.802;2022-09-12T05:41:22;11.80;99.90
49465;DHT22;35358;49.342;8.802;2022-09-12T05:43:53;11.70;99.90
49465;DHT22;35358;49.342;8.802;2022-09-12T05:46:21;11.80;99.90
49465;DHT22;35358;49.342;8.802;2022-09-12T05:48:50;11.90;99.90
49465;DHT22;35358;49.342;8.802;2022-09-12T05:51:21;11.90;99.90
49465;DHT22;35358;49.342;8.802;2022-09-12T05:54:01;11.90;99.90
49465;DHT22;35358;49.342;8.802;2022-09-12T05:56:36;11.80;99.90
49465;DHT22;35358;49.342;8.802;2022-09-12T05:59:09;11.90;99.90
49465;DHT22;35358;49.342;8.802;2022-09-12T06:01:36;11.80;99.90
49465;DHT22;35358;49.342;8.802;2022-09-12T06:04:05;11.90;99.90
49465;DHT22;35358;49.342;8.802;2022-09-12T06:06:37;12.00;99.90
49465;DHT22;35358;49.342;8.802;2022-09-12T06:09:03;12.00;99.90
49465;DHT22;35358;49.342;8.802;2022-09-12T06:11:35;12.00;99.90
49465;DHT22;35358;49.342;8.802;2022-09-12T06:14:02;12.00;99.90
49465;DHT22;35358;49.342;8.802;2022-09-12T06:16:29;12.00;99.90
49465;DHT22;35358;49.342;8.802;2022-09-12T06:19:03;12.00;99.90
49465;DHT22;35358;49.342;8.802;2022-09-12T06:21:32;12.10;99.90
49465;DHT22;35358;49.342;8.802;2022-09-12T06:23:59;12.20;99.90
49465;DHT22;35358;49.342;8.802;2022-09-12T06:26:27;12.30;99.90
49465;DHT22;35358;49.342;8.802;2022-09-12T06:28:58;12.40;99.90
49465;DHT22;35358;49.342;8.802;2022-09-12T06:31:29;12.60;99.90
49465;DHT22;35358;49.342;8.802;2022-09-12T06:34:06;12.60;99.90
49465;DHT22;35358;49.342;8.802;2022-09-12T06:36:35;12.70;99.90
49465;DHT22;35358;49.342;8.802;2022-09-12T06:39:03;12.70;99.90
49465;DHT22;35358;49.342;8.802;2022-09-12T06:41:30;12.80;99.90
49465;DHT22;35358;49.342;8.802;2022-09-12T06:43:57;12.80;99.90
49465;DHT22;35358;49.342;8.802;2022-09-12T06:46:24;12.90;99.90
49465;DHT22;35358;49.342;8.802;2022-09-12T06:48:50;12.90;99.90
49465;DHT22;35358;49.342;8.802;2022-09-12T06:51:19;13.00;99.90
49465;DHT22;35358;49.342;8.802;2022-09-12T06:53:47;13.10;99.90
49465;DHT22;35358;49.342;8.802;2022-09-12T06:56:21;13.20;99.90
49465;DHT22;35358;49.342;8.802;2022-09-12T06:58:48;13.30;99.90
49465;DHT22;35358;49.342;8.802;2022-09-12T07:01:16;13.40;99.90
49465;DHT22;35358;49.342;8.802;2022-09-12T07:03:55;13.50;99.90
49465;DHT22;35358;49.342;8.802;2022-09-12T07:06:25;13.50;99.90
49465;DHT22;35358;49.342;8.802;2022-09-12T07:08:57;13.70;99.90
49465;DHT22;35358;49.342;8.802;2022-09-12T07:11:26;13.70;99.90
49465;DHT22;35358;49.342;8.802;2022-09-12T07:13:54;13.80;99.90
49465;DHT22;35358;49.342;8.802;2022-09-12T07:16:22;13.80;99.90
49465;DHT22;35358;49.342;8.802;2022-09-12T07:18:57;14.00;99.90
49465;DHT22;35358;49.342;8.802;2022-09-12T07:21:23;14.00;99.90
49465;DHT22;35358;49.342;8.802;2022-09-12T07:23:51;14.20;99.90
49465;DHT22;35358;49.342;8.802;2022-09-12T07:26:19;14.30;99.90
49465;DHT22;35358;49.342;8.802;2022-09-12T07:28:50;14.30;99.90
49465;DHT22;35358;49.342;8.802;2022-09-12T07:31:21;14.40;99.90
49465;DHT22;35358;49.342;8.802;2022-09-12T07:33:47;14.40;99.90
49465;DHT22;35358;49.342;8.802;2022-09-12T07:36:22;14.50;99.90
49465;DHT22;35358;49.342;8.802;2022-09-12T07:38:55;14.50;99.90
49465;DHT22;35358;49.342;8.802;2022-09-12T07:41:29;14.60;99.90
49465;DHT22;35358;49.342;8.802;2022-09-12T07:43:56;14.60;99.90
49465;DHT22;35358;49.342;8.802;2022-09-12T07:46:28;14.60;99.90
49465;DHT22;35358;49.342;8.802;2022-09-12T07:48:58;14.70;99.90
49465;DHT22;35358;49.342;8.802;2022-09-12T07:51:28;14.90;99.90
49465;DHT22;35358;49.342;8.802;2022-09-12T07:53:54;15.00;99.90
49465;DHT22;35358;49.342;8.802;2022-09-12T07:56:21;15.10;99.90
49465;DHT22;35358;49.342;8.802;2022-09-12T07:58:49;15.20;99.90
49465;DHT22;35358;49.342;8.802;2022-09-12T08:01:20;15.40;99.90
49465;DHT22;35358;49.342;8.802;2022-09-12T08:03:48;15.50;99.90
49465;DHT22;35358;49.342;8.802;2022-09-12T08:06:19;15.60;99.90
49465;DHT22;35358;49.342;8.802;2022-09-12T08:08:45;15.80;99.90
49465;DHT22;35358;49.342;8.802;2022-09-12T08:11:13;16.00;99.90
49465;DHT22;35358;49.342;8.802;2022-09-12T08:13:42;16.10;99.90
49465;DHT22;35358;49.342;8.802;2022-09-12T08:16:11;16.20;99.90
49465;DHT22;35358;49.342;8.802;2022-09-12T08:18:40;16.30;99.90
49465;DHT22;35358;49.342;8.802;2022-09-12T08:21:09;16.40;99.90
49465;DHT22;35358;49.342;8.802;2022-09-12T08:23:36;16.60;99.90
49465;DHT22;35358;49.342;8.802;2022-09-12T08:26:03;16.80;99.90
49465;DHT22;35358;49.342;8.802;2022-09-12T08:28:30;16.90;99.90
49465;DHT22;35358;49.342;8.802;2022-09-12T08:31:04;17.00;99.90
49465;DHT22;35358;49.342;8.802;2022-09-12T08:33:31;17.10;99.90
49465;DHT22;35358;49.342;8.802;2022-09-12T08:38:31;17.30;99.90
49465;DHT22;35358;49.342;8.802;2022-09-12T08:41:10;17.40;99.90
49465;DHT22;35358;49.342;8.802;2022-09-12T08:46:21;17.50;99.90
49465;DHT22;35358;49.342;8.802;2022-09-12T08:48:48;17.50;99.90
49465;DHT22;35358;49.342;8.802;2022-09-12T08:51:16;17.60;99.90
49465;DHT22;35358;49.342;8.802;2022-09-12T08:53:50;17.60;99.90
49465;DHT22;35358;49.342;8.802;2022-09-12T08:56:21;17.70;99.90
49465;DHT22;35358;49.342;8.802;2022-09-12T08:58:47;17.80;99.90
49465;DHT22;35358;49.342;8.802;2022-09-12T09:01:34;17.80;99.90
49465;DHT22;35358;49.342;8.802;2022-09-12T09:10:07;18.10;99.90
49465;DHT22;35358;49.342;8.802;2022-09-12T09:12:57;18.20;99.90
49465;DHT22;35358;49.342;8.802;2022-09-12T09:15:44;18.40;99.90
49465;DHT22;35358;49.342;8.802;2022-09-12T09:18:23;18.70;99.90
49465;DHT22;35358;49.342;8.802;2022-09-12T09:20:58;18.80;99.90
49465;DHT22;35358;49.342;8.802;2022-09-12T09:23:30;18.70;99.90
49465;DHT22;35358;49.342;8.802;2022-09-12T09:28:41;19.00;99.90
49465;DHT22;35358;49.342;8.802;2022-09-12T09:31:25;19.10;99.90
49465;DHT22;35358;49.342;8.802;2022-09-12T09:33:53;19.00;99.90
49465;DHT22;35358;49.342;8.802;2022-09-12T09:36:22;19.10;99.90
49465;DHT22;35358;49.342;8.802;2022-09-12T09:44:36;19.40;99.90
49465;DHT22;35358;49.342;8.802;2022-09-12T09:47:02;19.50;99.90
49465;DHT22;35358;49.342;8.802;2022-09-12T09:49:33;19.50;99.90
49465;DHT22;35358;49.342;8.802;2022-09-12T09:52:02;19.60;99.90
49465;DHT22;35358;49.342;8.802;2022-09-12T10:00:37;19.90;99.90
49465;DHT22;35358;49.342;8.802;2022-09-12T10:05:46;20.20;99.90
49465;DHT22;35358;49.342;8.802;2022-09-12T10:08:30;20.30;99.90
49465;DHT22;35358;49.342;8.802;2022-09-12T10:16:22;20.30;99.90
49465;DHT22;35358;49.342;8.802;2022-09-12T10:18:49;20.20;99.90
49465;DHT22;35358;49.342;8.802;2022-09-12T10:21:22;20.40;99.90
49465;DHT22;35358;49.342;8.802;2022-09-12T10:24:23;20.50;99.90
49465;DHT22;35358;49.342;8.802;2022-09-12T10:26:52;20.40;99.90
49465;DHT22;35358;49.342;8.802;2022-09-12T10:29:30;20.50;99.90
49465;DHT22;35358;49.342;8.802;2022-09-12T10:31:58;20.60;99.90
49465;DHT22;35358;49.342;8.802;2022-09-12T10:34:33;20.70;99.90
49465;DHT22;35358;49.342;8.802;2022-09-12T10:37:09;20.60;99.90
49465;DHT22;35358;49.342;8.802;2022-09-12T10:39:52;20.70;99.90
49465;DHT22;35358;49.342;8.802;2022-09-12T10:45:23;21.00;99.90
49465;DHT22;35358;49.342;8.802;2022-09-12T10:47:51;21.00;99.90
49465;DHT22;35358;49.342;8.802;2022-09-12T10:50:24;21.10;99.90
49465;DHT22;35358;49.342;8.802;2022-09-12T10:52:53;21.20;99.90
49465;DHT22;35358;49.342;8.802;2022-09-12T10:55:27;21.20;99.90
49465;DHT22;35358;49.342;8.802;2022-09-12T10:58:07;21.10;99.90
49465;DHT22;35358;49.342;8.802;2022-09-12T11:00:36;21.20;99.90
49465;DHT22;35358;49.342;8.802;2022-09-12T11:03:28;21.20;99.90
49465;DHT22;35358;49.342;8.802;2022-09-12T11:05:59;21.50;99.90
49465;DHT22;35358;49.342;8.802;2022-09-12T11:11:14;21.50;99.90
49465;DHT22;35358;49.342;8.802;2022-09-12T11:25:11;21.60;99.90
49465;DHT22;35358;49.342;8.802;2022-09-12T11:30:14;21.60;99.90
49465;DHT22;35358;49.342;8.802;2022-09-12T11:35:31;21.80;99.90
49465;DHT22;35358;49.342;8.802;2022-09-12T11:41:24;22.30;99.90
49465;DHT22;35358;49.342;8.802;2022-09-12T11:46:35;22.40;99.90
49465;DHT22;35358;49.342;8.802;2022-09-12T12:00:15;22.50;99.90
49465;DHT22;35358;49.342;8.802;2022-09-12T12:08:44;22.70;99.90
49465;DHT22;35358;49.342;8.802;2022-09-12T12:11:34;22.70;99.90
49465;DHT22;35358;49.342;8.802;2022-09-12T12:14:04;22.80;99.90
49465;DHT22;35358;49.342;8.802;2022-09-12T12:16:40;22.80;99.90
49465;DHT22;35358;49.342;8.802;2022-09-12T12:22:13;23.10;99.90
49465;DHT22;35358;49.342;8.802;2022-09-12T12:25:07;23.20;99.90
49465;DHT22;35358;49.342;8.802;2022-09-12T12:27:48;23.30;99.90
49465;DHT22;35358;49.342;8.802;2022-09-12T12:43:48;23.30;99.90
49465;DHT22;35358;49.342;8.802;2022-09-12T12:46:15;23.50;99.90
49465;DHT22;35358;49.342;8.802;2022-09-12T12:48:57;23.60;99.90
49465;DHT22;35358;49.342;8.802;2022-09-12T12:53:59;23.80;99.90
49465;DHT22;35358;49.342;8.802;2022-09-12T12:56:38;24.10;99.90
49465;DHT22;35358;49.342;8.802;2022-09-12T12:59:17;24.30;99.90
49465;DHT22;35358;49.342;8.802;2022-09-12T13:01:52;24.20;99.90
49465;DHT22;35358;49.342;8.802;2022-09-12T13:04:22;24.20;99.90
49465;DHT22;35358;49.342;8.802;2022-09-12T13:07:04;24.40;99.90
49465;DHT22;35358;49.342;8.802;2022-09-12T13:09:47;24.60;99.90
49465;DHT22;35358;49.342;8.802;2022-09-12T13:12:25;24.50;99.90
49465;DHT22;35358;49.342;8.802;2022-09-12T13:14:54;24.60;99.90
49465;DHT22;35358;49.342;8.802;2022-09-12T13:17:33;24.80;99.90
49465;DHT22;35358;49.342;8.802;2022-09-12T13:22:46;25.10;99.90
49465;DHT22;35358;49.342;8.802;2022-09-12T13:30:39;25.30;99.90
49465;DHT22;35358;49.342;8.802;2022-09-12T13:43:56;25.20;99.90
49465;DHT22;35358;49.342;8.802;2022-09-12T13:46:28;25.20;99.90
49465;DHT22;35358;49.342;8.802;2022-09-12T13:48:57;25.10;99.90
49465;DHT22;35358;49.342;8.802;2022-09-12T13:51:28;25.20;99.90
49465;DHT22;35358;49.342;8.802;2022-09-12T13:53:56;25.80;99.90
49465;DHT22;35358;49.342;8.802;2022-09-12T13:56:25;26.10;99.90
49465;DHT22;35358;49.342;8.802;2022-09-12T13:58:52;26.40;99.90
49465;DHT22;35358;49.342;8.802;2022-09-12T14:01:20;26.60;99.90
49465;DHT22;35358;49.342;8.802;2022-09-12T14:06:49;26.60;99.90
49465;DHT22;35358;49.342;8.802;2022-09-12T14:11:56;26.40;99.90
49465;DHT22;35358;49.342;8.802;2022-09-12T14:14:30;26.50;99.90
49465;DHT22;35358;49.342;8.802;2022-09-12T14:17:00;26.60;99.90
49465;DHT22;35358;49.342;8.802;2022-09-12T14:19:28;26.50;99.90
49465;DHT22;35358;49.342;8.802;2022-09-12T14:21:55;26.40;99.90
49465;DHT22;35358;49.342;8.802;2022-09-12T14:24:22;26.40;99.90
49465;DHT22;35358;49.342;8.802;2022-09-12T14:26:53;26.50;99.90
49465;DHT22;35358;49.342;8.802;2022-09-12T14:29:21;25.90;99.90
49465;DHT22;35358;49.342;8.802;2022-09-12T14:32:02;26.20;99.90
49465;DHT22;35358;49.342;8.802;2022-09-12T14:34:31;26.40;99.90
49465;DHT22;35358;49.342;8.802;2022-09-12T14:36:57;26.60;99.90
49465;DHT22;35358;49.342;8.802;2022-09-12T14:39:38;26.80;99.90
49465;DHT22;35358;49.342;8.802;2022-09-12T14:42:18;27.20;99.90
49465;DHT22;35358;49.342;8.802;2022-09-12T14:47:26;27.30;99.90
49465;DHT22;35358;49.342;8.802;2022-09-12T14:49:54;27.00;99.90
49465;DHT22;35358;49.342;8.802;2022-09-12T14:55:18;26.70;99.90
49465;DHT22;35358;49.342;8.802;2022-09-12T14:57:46;26.80;99.90
49465;DHT22;35358;49.342;8.802;2022-09-12T15:00:20;26.60;99.90
49465;DHT22;35358;49.342;8.802;2022-09-12T15:02:50;26.90;99.90
49465;DHT22;35358;49.342;8.802;2022-09-12T15:05:24;26.70;99.90
49465;DHT22;35358;49.342;8.802;2022-09-12T15:15:38;26.90;99.90
49465;DHT22;35358;49.342;8.802;2022-09-12T15:18:06;26.80;99.90
49465;DHT22;35358;49.342;8.802;2022-09-12T15:20:33;27.20;99.90
49465;DHT22;35358;49.342;8.802;2022-09-12T15:22:58;27.20;99.90
49465;DHT22;35358;49.342;8.802;2022-09-12T15:25:24;27.30;99.90
49465;DHT22;35358;49.342;8.802;2022-09-12T15:27:52;27.30;99.90
49465;DHT22;35358;49.342;8.802;2022-09-12T15:30:20;26.70;99.90
49465;DHT22;35358;49.342;8.802;2022-09-12T15:32:46;26.40;99.90
49465;DHT22;35358;49.342;8.802;2022-09-12T15:35:22;26.30;99.90
49465;DHT22;35358;49.342;8.802;2022-09-12T15:37:48;26.30;99.90
49465;DHT22;35358;49.342;8.802;2022-09-12T15:40:17;26.20;99.90
49465;DHT22;35358;49.342;8.802;2022-09-12T15:42:44;26.10;99.90
49465;DHT22;35358;49.342;8.802;2022-09-12T15:47:38;26.10;99.90
49465;DHT22;35358;49.342;8.802;2022-09-12T15:50:04;26.10;99.90
49465;DHT22;35358;49.342;8.802;2022-09-12T15:52:30;26.10;99.90
49465;DHT22;35358;49.342;8.802;2022-09-12T15:54:56;26.00;99.90
49465;DHT22;35358;49.342;8.802;2022-09-12T15:57:21;26.10;99.90
49465;DHT22;35358;49.342;8.802;2022-09-12T15:59:47;26.20;99.90
49465;DHT22;35358;49.342;8.802;2022-09-12T16:02:12;25.90;99.90
49465;DHT22;35358;49.342;8.802;2022-09-12T16:04:38;26.00;99.90
49465;DHT22;35358;49.342;8.802;2022-09-12T16:07:05;26.40;99.90
49465;DHT22;35358;49.342;8.802;2022-09-12T16:09:33;26.40;99.90
49465;DHT22;35358;49.342;8.802;2022-09-12T16:12:02;26.00;99.90
49465;DHT22;35358;49.342;8.802;2022-09-12T16:14:27;26.10;99.90
49465;DHT22;35358;49.342;8.802;2022-09-12T16:16:53;26.70;99.90
49465;DHT22;35358;49.342;8.802;2022-09-12T16:19:19;26.60;99.90
49465;DHT22;35358;49.342;8.802;2022-09-12T16:21:47;26.30;99.90
49465;DHT22;35358;49.342;8.802;2022-09-12T16:24:20;26.10;99.90
49465;DHT22;35358;49.342;8.802;2022-09-12T16:26:45;26.10;99.90
49465;DHT22;35358;49.342;8.802;2022-09-12T16:29:11;26.40;99.90
49465;DHT22;35358;49.342;8.802;2022-09-12T16:31:40;26.20;99.90
49465;DHT22;35358;49.342;8.802;2022-09-12T16:34:06;26.30;99.90
49465;DHT22;35358;49.342;8.802;2022-09-12T16:36:37;26.20;99.90
49465;DHT22;35358;49.342;8.802;2022-09-12T16:39:03;26.30;99.90
49465;DHT22;35358;49.342;8.802;2022-09-12T16:41:28;26.00;99.90
49465;DHT22;35358;49.342;8.802;2022-09-12T16:43:54;25.80;99.90
49465;DHT22;35358;49.342;8.802;2022-09-12T16:46:22;25.90;99.90
49465;DHT22;35358;49.342;8.802;2022-09-12T16:48:52;26.30;99.90
49465;DHT22;35358;49.342;8.802;2022-09-12T16:51:21;26.50;99.90
49465;DHT22;35358;49.342;8.802;2022-09-12T16:53:49;26.50;99.90
49465;DHT22;35358;49.342;8.802;2022-09-12T16:56:15;26.60;99.90
49465;DHT22;35358;49.342;8.802;2022-09-12T16:58:43;26.80;99.90
49465;DHT22;35358;49.342;8.802;2022-09-12T17:01:17;26.70;99.90
49465;DHT22;35358;49.342;8.802;2022-09-12T17:03:43;27.10;99.90
49465;DHT22;35358;49.342;8.802;2022-09-12T17:06:14;27.20;99.90
49465;DHT22;35358;49.342;8.802;2022-09-12T17:08:44;27.90;99.90
49465;DHT22;35358;49.342;8.802;2022-09-12T17:11:15;28.10;99.90
49465;DHT22;35358;49.342;8.802;2022-09-12T17:13:54;27.40;99.90
49465;DHT22;35358;49.342;8.802;2022-09-12T17:16:26;26.70;99.90
49465;DHT22;35358;49.342;8.802;2022-09-12T17:18:52;26.10;99.90
49465;DHT22;35358;49.342;8.802;2022-09-12T17:21:19;25.20;99.90
49465;DHT22;35358;49.342;8.802;2022-09-12T17:23:47;24.30;99.90
49465;DHT22;35358;49.342;8.802;2022-09-12T17:26:15;23.60;99.90
49465;DHT22;35358;49.342;8.802;2022-09-12T17:28:41;23.10;99.90
49465;DHT22;35358;49.342;8.802;2022-09-12T17:31:10;22.90;99.90
49465;DHT22;35358;49.342;8.802;2022-09-12T17:33:37;22.70;99.90
49465;DHT22;35358;49.342;8.802;2022-09-12T17:36:05;22.50;99.90
49465;DHT22;35358;49.342;8.802;2022-09-12T17:38:35;22.40;99.90
49465;DHT22;35358;49.342;8.802;2022-09-12T17:41:17;22.20;99.90
49465;DHT22;35358;49.342;8.802;2022-09-12T17:43:47;22.10;99.90
49465;DHT22;35358;49.342;8.802;2022-09-12T17:46:15;22.00;99.90
49465;DHT22;35358;49.342;8.802;2022-09-12T17:48:41;21.90;99.90
49465;DHT22;35358;49.342;8.802;2022-09-12T17:51:14;21.70;99.90
49465;DHT22;35358;49.342;8.802;2022-09-12T17:53:40;21.40;99.90
49465;DHT22;35358;49.342;8.802;2022-09-12T17:56:06;21.20;99.90
49465;DHT22;35358;49.342;8.802;2022-09-12T17:58:33;21.10;99.90
49465;DHT22;35358;49.342;8.802;2022-09-12T18:01:10;20.90;99.90
49465;DHT22;35358;49.342;8.802;2022-09-12T18:03:56;20.80;99.90
49465;DHT22;35358;49.342;8.802;2022-09-12T18:06:22;20.80;99.90
49465;DHT22;35358;49.342;8.802;2022-09-12T18:08:50;20.60;99.90
49465;DHT22;35358;49.342;8.802;2022-09-12T18:11:16;20.50;99.90
49465;DHT22;35358;49.342;8.802;2022-09-12T18:13:42;20.40;99.90
49465;DHT22;35358;49.342;8.802;2022-09-12T18:16:11;20.20;99.90
49465;DHT22;35358;49.342;8.802;2022-09-12T18:18:37;20.00;99.90
49465;DHT22;35358;49.342;8.802;2022-09-12T18:21:07;19.80;99.90
49465;DHT22;35358;49.342;8.802;2022-09-12T18:23:33;19.60;99.90
49465;DHT22;35358;49.342;8.802;2022-09-12T18:26:01;19.40;99.90
49465;DHT22;35358;49.342;8.802;2022-09-12T18:28:29;19.30;99.90
49465;DHT22;35358;49.342;8.802;2022-09-12T18:30:56;19.40;99.90
49465;DHT22;35358;49.342;8.802;2022-09-12T18:33:21;19.40;99.90
49465;DHT22;35358;49.342;8.802;2022-09-12T18:35:51;19.20;99.90
49465;DHT22;35358;49.342;8.802;2022-09-12T18:38:17;19.10;99.90
49465;DHT22;35358;49.342;8.802;2022-09-12T18:40:43;19.10;99.90
49465;DHT22;35358;49.342;8.802;2022-09-12T18:43:10;19.00;99.90
49465;DHT22;35358;49.342;8.802;2022-09-12T18:45:36;18.90;99.90
49465;DHT22;35358;49.342;8.802;2022-09-12T18:48:04;18.80;99.90
49465;DHT22;35358;49.342;8.802;2022-09-12T18:50:33;18.70;99.90